Huntsville, Kentucky
Current Conditions -  °F | °C
As of 1:53 PM on Saturday 25 Oct 2014 (Local Time) from KBWG Reporting Station
Clear Clear  
Wind Chill: 75°   Ceiling: Unl
Heat Index: 75°   Visibility: 10mi
Dew Point: 59°   Wind: 7mph
Humidity: 57%   Direction: 270°W
Pressure: 29.99"   Gusts: NA
Location:  37.16°N, 86.88°W
Report Text: KBWG 251853Z AUTO 27006KT 10SM CLR 24/15 A2999 RMK AO2 SLP152 T02390150
Loading
Personal Weather Stations






























Interactive Weather Map
Tropical Storm Tracking
New forecast layout! Learn more

10-Day Weather Forecast

Advertisements
Track Severe Weather on mobile